createdAt,value
2018-08-22T00:00:33.356Z,16.82
2018-08-22T00:03:00.348Z,16.85
2018-08-22T00:05:27.369Z,16.80
2018-08-22T00:07:54.359Z,16.81
2018-08-22T00:10:28.333Z,16.80
2018-08-22T00:12:55.330Z,16.69
2018-08-22T00:15:22.322Z,16.64
2018-08-22T00:17:49.440Z,16.70
2018-08-22T00:20:16.437Z,16.76
2018-08-22T00:22:43.513Z,16.73
2018-08-22T00:25:10.725Z,16.57
2018-08-22T00:27:37.789Z,16.61
2018-08-22T00:30:05.456Z,16.65
2018-08-22T00:32:32.533Z,16.63
2018-08-22T00:34:59.515Z,16.74
2018-08-22T00:37:26.724Z,16.62
2018-08-22T00:39:53.712Z,16.54
2018-08-22T00:42:20.718Z,16.57
2018-08-22T00:44:47.755Z,16.57
2018-08-22T00:47:14.759Z,16.44
2018-08-22T00:49:41.852Z,16.43
2018-08-22T00:52:09.122Z,16.50
2018-08-22T00:54:36.112Z,16.54
2018-08-22T00:57:03.109Z,16.52
2018-08-22T00:59:30.118Z,16.47
2018-08-22T01:01:57.118Z,16.45
2018-08-22T01:04:24.349Z,16.29
2018-08-22T01:06:51.417Z,16.31
2018-08-22T01:09:18.435Z,16.36
2018-08-22T01:11:45.425Z,16.35
2018-08-22T01:14:12.420Z,16.20
2018-08-22T01:16:39.420Z,16.29
2018-08-22T01:19:06.409Z,16.29
2018-08-22T01:21:33.464Z,16.24
2018-08-22T01:24:00.595Z,16.23
2018-08-22T01:26:27.602Z,16.22
2018-08-22T01:28:54.664Z,16.14
2018-08-22T01:31:21.651Z,16.14
2018-08-22T01:33:48.717Z,16.05
2018-08-22T01:36:15.740Z,16.18
2018-08-22T01:38:42.955Z,16.16
2018-08-22T01:41:09.927Z,16.14
2018-08-22T01:43:36.964Z,15.98
2018-08-22T01:46:03.992Z,16.00
2018-08-22T01:48:30.984Z,15.98
2018-08-22T01:50:58.035Z,16.00
2018-08-22T01:53:25.018Z,15.84
2018-08-22T01:55:52.003Z,15.81
2018-08-22T01:58:19.197Z,15.71
2018-08-22T02:00:46.172Z,15.74
2018-08-22T02:03:13.196Z,15.77
2018-08-22T02:05:40.269Z,15.76
2018-08-22T02:08:07.259Z,15.82
2018-08-22T02:10:36.896Z,15.71
2018-08-22T02:13:03.945Z,15.57
2018-08-22T02:15:31.243Z,15.64
2018-08-22T02:17:58.276Z,15.42
2018-08-22T02:20:25.296Z,15.58
2018-08-22T02:22:52.391Z,15.56
2018-08-22T02:25:19.446Z,15.57
2018-08-22T02:27:46.403Z,15.45
2018-08-22T02:30:13.417Z,15.38
2018-08-22T02:32:40.420Z,15.41
2018-08-22T02:35:07.415Z,15.43
2018-08-22T02:37:34.444Z,15.34
2018-08-22T02:40:01.491Z,15.43
2018-08-22T02:42:28.506Z,15.23
2018-08-22T02:44:55.543Z,15.30
2018-08-22T02:47:22.515Z,15.21
2018-08-22T02:49:49.540Z,15.26
2018-08-22T02:52:16.563Z,15.28
2018-08-22T02:54:43.558Z,15.21
2018-08-22T02:57:10.565Z,15.16
2018-08-22T02:59:37.588Z,15.15
2018-08-22T03:02:04.652Z,15.18
2018-08-22T03:04:31.744Z,15.14
2018-08-22T03:06:58.732Z,15.17
2018-08-22T03:09:25.740Z,15.17
2018-08-22T03:11:52.845Z,15.21
2018-08-22T03:14:19.848Z,15.29
2018-08-22T03:16:47.135Z,15.12
2018-08-22T03:19:14.195Z,15.05
2018-08-22T03:21:41.168Z,15.07
2018-08-22T03:24:08.251Z,15.06
2018-08-22T03:26:42.284Z,14.92
2018-08-22T03:29:09.647Z,14.93
2018-08-22T03:31:36.608Z,14.85
2018-08-22T03:34:03.681Z,14.99
2018-08-22T03:36:30.695Z,15.07
2018-08-22T03:38:57.685Z,15.00
2018-08-22T03:41:24.664Z,15.09
2018-08-22T03:43:51.876Z,14.96
2018-08-22T03:46:18.927Z,14.76
2018-08-22T03:48:45.921Z,14.94
2018-08-22T03:51:12.941Z,14.88
2018-08-22T03:53:39.956Z,14.85
2018-08-22T03:56:06.944Z,14.74
2018-08-22T03:58:34.022Z,14.73
2018-08-22T04:01:01.054Z,14.89
2018-08-22T04:03:28.039Z,14.84
2018-08-22T04:05:55.124Z,14.84
2018-08-22T04:08:22.592Z,14.90
2018-08-22T04:10:49.603Z,14.92
2018-08-22T04:13:16.575Z,14.92
2018-08-22T04:15:43.648Z,14.83
2018-08-22T04:18:10.679Z,14.79
2018-08-22T04:20:37.687Z,14.89
2018-08-22T04:23:04.710Z,14.77
2018-08-22T04:25:31.726Z,14.76
2018-08-22T04:27:58.732Z,14.69
2018-08-22T04:30:25.721Z,14.70
2018-08-22T04:32:52.734Z,14.84
2018-08-22T04:35:19.744Z,14.86
2018-08-22T04:37:46.863Z,14.85
2018-08-22T04:40:13.853Z,14.82
2018-08-22T04:42:40.970Z,14.79
2018-08-22T04:45:07.960Z,14.83
2018-08-22T04:47:34.948Z,14.85
2018-08-22T04:50:01.958Z,14.86
2018-08-22T04:52:28.943Z,14.79
2018-08-22T04:54:55.935Z,14.84
2018-08-22T04:57:22.909Z,14.86
2018-08-22T04:59:50.183Z,14.94
2018-08-22T05:02:17.613Z,14.91
2018-08-22T05:04:44.662Z,14.85
2018-08-22T05:07:11.645Z,15.05
2018-08-22T05:09:38.668Z,15.15
2018-08-22T05:12:05.667Z,15.04
2018-08-22T05:14:32.673Z,15.04
2018-08-22T05:16:59.683Z,15.22
2018-08-22T05:19:26.676Z,15.33
2018-08-22T05:21:53.678Z,15.48
2018-08-22T05:24:20.782Z,15.47
2018-08-22T05:26:47.780Z,15.50
2018-08-22T05:29:14.796Z,15.42
2018-08-22T05:31:41.836Z,15.47
2018-08-22T05:34:08.819Z,15.59
2018-08-22T05:36:35.811Z,15.55
2018-08-22T05:39:05.295Z,15.56
2018-08-22T05:41:32.276Z,15.63
2018-08-22T05:43:59.260Z,15.72
2018-08-22T05:46:26.263Z,15.84
2018-08-22T05:48:53.241Z,15.86
2018-08-22T05:51:20.249Z,15.90
2018-08-22T05:53:47.267Z,15.89
2018-08-22T05:56:14.252Z,16.07
2018-08-22T05:58:41.280Z,16.02
2018-08-22T06:01:08.289Z,16.05
2018-08-22T06:03:35.343Z,16.12
2018-08-22T06:06:02.495Z,16.21
2018-08-22T06:08:29.479Z,16.28
2018-08-22T06:10:56.568Z,16.36
2018-08-22T06:13:23.547Z,16.43
2018-08-22T06:15:50.700Z,16.57
2018-08-22T06:18:17.864Z,16.59
2018-08-22T06:20:44.873Z,16.65
2018-08-22T06:23:11.851Z,16.74
2018-08-22T06:25:38.932Z,16.86
2018-08-22T06:28:06.034Z,16.97
2018-08-22T06:30:33.017Z,17.06
2018-08-22T06:33:00.046Z,17.13
2018-08-22T06:35:27.096Z,17.24
2018-08-22T06:37:54.116Z,17.36
2018-08-22T06:40:21.105Z,17.42
2018-08-22T06:42:48.101Z,17.51
2018-08-22T06:45:15.460Z,17.57
2018-08-22T06:47:42.435Z,17.83
2018-08-22T06:50:09.605Z,17.95
2018-08-22T06:52:36.911Z,17.98
2018-08-22T06:55:04.344Z,18.08
2018-08-22T06:57:31.619Z,18.18
2018-08-22T06:59:58.634Z,18.27
2018-08-22T07:02:25.664Z,18.34
2018-08-22T07:04:52.684Z,18.53
2018-08-22T07:07:19.787Z,18.57
2018-08-22T07:09:46.872Z,18.69
2018-08-22T07:12:13.924Z,18.79
2018-08-22T07:14:41.359Z,18.85
2018-08-22T07:17:08.351Z,18.98
2018-08-22T07:19:35.372Z,19.03
2018-08-22T07:22:02.535Z,19.03
2018-08-22T07:24:29.545Z,19.17
2018-08-22T07:26:56.620Z,19.21
2018-08-22T07:29:23.620Z,19.29
2018-08-22T07:31:53.038Z,19.42
2018-08-22T07:34:20.399Z,19.46
2018-08-22T07:36:47.390Z,19.58
2018-08-22T07:39:16.419Z,19.64
2018-08-22T07:41:43.458Z,19.78
2018-08-22T07:44:12.066Z,19.89
2018-08-22T07:46:39.140Z,20.01
2018-08-22T07:49:06.116Z,20.07
2018-08-22T07:51:33.217Z,20.13
2018-08-22T07:54:00.208Z,20.16
2018-08-22T07:56:28.300Z,20.18
2018-08-22T07:59:07.683Z,20.34
2018-08-22T08:01:35.319Z,20.38
2018-08-22T08:04:02.404Z,20.57
2018-08-22T08:06:29.394Z,20.77
2018-08-22T08:08:56.373Z,20.81
2018-08-22T08:11:23.369Z,20.79
2018-08-22T08:13:50.427Z,20.90
2018-08-22T08:16:17.616Z,20.99
2018-08-22T08:18:44.597Z,20.96
2018-08-22T08:21:11.575Z,21.06
2018-08-22T08:23:38.843Z,21.07
2018-08-22T08:26:05.929Z,21.06
2018-08-22T08:28:32.984Z,21.14
2018-08-22T08:31:00.058Z,21.23
2018-08-22T08:33:27.054Z,21.38
2018-08-22T08:35:54.057Z,21.33
2018-08-22T08:38:21.071Z,21.49
2018-08-22T08:40:48.113Z,21.53
2018-08-22T08:43:15.153Z,21.62
2018-08-22T08:45:42.084Z,21.65
2018-08-22T08:48:09.068Z,21.78
2018-08-22T08:50:36.125Z,21.81
2018-08-22T08:53:03.104Z,21.90
2018-08-22T08:55:30.388Z,21.97
2018-08-22T08:57:57.368Z,22.21
2018-08-22T09:00:24.452Z,22.27
2018-08-22T09:02:51.461Z,22.43
2018-08-22T09:05:18.564Z,22.47
2018-08-22T09:07:45.541Z,22.32
2018-08-22T09:10:12.668Z,22.48
2018-08-22T09:12:39.654Z,22.72
2018-08-22T09:15:07.053Z,22.90
2018-08-22T09:17:34.254Z,23.03
2018-08-22T09:20:01.282Z,23.03
2018-08-22T09:22:28.381Z,23.21
2018-08-22T09:24:55.553Z,23.14
2018-08-22T09:27:22.538Z,23.16
2018-08-22T09:29:50.572Z,23.31
2018-08-22T09:32:17.585Z,23.15
2018-08-22T09:34:44.804Z,23.26
2018-08-22T09:37:11.799Z,23.52
2018-08-22T09:39:38.943Z,23.82
2018-08-22T09:42:05.884Z,23.78
2018-08-22T09:44:32.913Z,23.86
2018-08-22T09:46:59.907Z,24.06
2018-08-22T09:49:26.912Z,24.13
2018-08-22T09:51:53.920Z,24.26
2018-08-22T09:54:20.937Z,24.28
2018-08-22T09:56:47.919Z,24.25
2018-08-22T09:59:14.992Z,24.17
2018-08-22T10:01:43.313Z,24.43
2018-08-22T10:04:12.121Z,24.38
2018-08-22T10:06:44.629Z,24.49
2018-08-22T10:09:13.752Z,24.53
2018-08-22T10:11:40.789Z,24.65
2018-08-22T10:14:07.803Z,24.97
2018-08-22T10:16:34.887Z,24.95
2018-08-22T10:19:03.790Z,24.80
2018-08-22T10:21:31.556Z,24.91
2018-08-22T10:23:59.583Z,25.01
2018-08-22T10:26:27.551Z,25.09
2018-08-22T10:28:55.500Z,25.32
2018-08-22T10:31:24.424Z,25.49
2018-08-22T10:33:52.289Z,25.45
2018-08-22T10:36:19.563Z,25.68
2018-08-22T10:38:47.915Z,25.65
2018-08-22T10:41:14.920Z,25.67
2018-08-22T10:43:42.255Z,25.47
2018-08-22T10:46:09.520Z,25.38
2018-08-22T10:48:36.548Z,25.53
2018-08-22T10:51:03.628Z,25.83
2018-08-22T10:53:30.793Z,26.05
2018-08-22T10:55:57.974Z,25.95
2018-08-22T10:58:25.766Z,25.61
2018-08-22T11:00:53.641Z,25.70
2018-08-22T11:03:20.697Z,25.85
2018-08-22T11:05:47.695Z,25.80
2018-08-22T11:08:14.699Z,25.98
2018-08-22T11:10:41.853Z,26.26
2018-08-22T11:13:10.013Z,26.14
2018-08-22T11:15:37.078Z,26.33
2018-08-22T11:18:04.255Z,26.44
2018-08-22T11:20:31.487Z,26.17
2018-08-22T11:23:10.296Z,26.37
2018-08-22T11:25:49.127Z,26.48
2018-08-22T11:28:27.916Z,26.45
2018-08-22T11:31:06.401Z,26.09
2018-08-22T11:33:45.144Z,26.12
2018-08-22T11:36:11.208Z,26.34
2018-08-22T11:38:38.296Z,26.43
2018-08-22T11:41:05.372Z,26.34
2018-08-22T11:43:32.681Z,26.06
2018-08-22T11:45:59.770Z,26.13
2018-08-22T11:48:26.764Z,26.09
2018-08-22T11:50:53.751Z,26.51
2018-08-22T11:53:20.893Z,26.44
2018-08-22T11:55:48.151Z,26.61
2018-08-22T11:58:15.167Z,26.68
2018-08-22T12:00:42.229Z,26.58
2018-08-22T12:03:09.315Z,26.71
2018-08-22T12:05:36.319Z,26.74
2018-08-22T12:08:03.380Z,26.78
2018-08-22T12:10:30.788Z,26.87
2018-08-22T12:12:58.724Z,26.92
2018-08-22T12:15:25.736Z,26.92
2018-08-22T12:17:52.723Z,26.93
2018-08-22T12:20:19.736Z,27.01
2018-08-22T12:22:46.716Z,27.09
2018-08-22T12:25:13.871Z,27.17
2018-08-22T12:27:41.092Z,27.64
2018-08-22T12:30:08.128Z,27.90
2018-08-22T12:32:35.224Z,27.80
2018-08-22T12:35:02.256Z,27.77
2018-08-22T12:37:29.351Z,27.64
2018-08-22T12:39:56.456Z,27.80
2018-08-22T12:42:23.547Z,28.19
2018-08-22T12:44:50.673Z,28.77
2018-08-22T12:47:18.169Z,29.23
2018-08-22T12:49:45.176Z,29.36
2018-08-22T12:52:12.185Z,29.03
2018-08-22T12:54:39.174Z,29.66
2018-08-22T12:57:06.211Z,29.72
2018-08-22T12:59:33.204Z,30.28
2018-08-22T13:02:06.984Z,30.12
2018-08-22T13:04:34.012Z,30.92
2018-08-22T13:07:00.996Z,30.77
2018-08-22T13:09:28.005Z,30.29
2018-08-22T13:11:55.013Z,30.71
2018-08-22T13:14:22.071Z,30.05
2018-08-22T13:16:49.076Z,29.85
2018-08-22T13:19:16.180Z,30.22
2018-08-22T13:21:43.301Z,30.62
2018-08-22T13:24:10.422Z,30.11
2018-08-22T13:26:37.544Z,30.61
2018-08-22T13:29:04.675Z,30.56
2018-08-22T13:31:31.756Z,30.90
2018-08-22T13:33:58.813Z,31.60
2018-08-22T13:36:25.929Z,30.90
2018-08-22T13:38:52.940Z,30.90
2018-08-22T13:41:20.035Z,30.73
2018-08-22T13:43:47.015Z,31.05
2018-08-22T13:46:14.203Z,31.98
2018-08-22T13:48:41.204Z,32.73
2018-08-22T13:51:08.223Z,32.66
2018-08-22T13:53:35.227Z,31.23
2018-08-22T13:56:02.315Z,31.29
2018-08-22T13:58:29.263Z,31.35
2018-08-22T14:00:56.332Z,31.90
2018-08-22T14:03:23.532Z,31.76
2018-08-22T14:05:50.612Z,31.21
2018-08-22T14:08:17.609Z,30.69
2018-08-22T14:10:44.783Z,30.62
2018-08-22T14:13:11.960Z,30.58
2018-08-22T14:15:39.031Z,30.53
2018-08-22T14:18:06.103Z,30.48
2018-08-22T14:20:33.224Z,30.96
2018-08-22T14:23:00.244Z,31.07
2018-08-22T14:25:27.273Z,31.21
2018-08-22T14:27:54.448Z,30.51
2018-08-22T14:30:21.467Z,30.46
2018-08-22T14:32:48.459Z,30.65
2018-08-22T14:35:15.454Z,30.32
2018-08-22T14:37:42.471Z,30.53
2018-08-22T14:40:09.497Z,30.20
2018-08-22T14:42:36.474Z,29.91
2018-08-22T14:45:03.963Z,29.82
2018-08-22T14:47:31.039Z,30.05
2018-08-22T14:49:58.115Z,29.97
2018-08-22T14:52:25.203Z,29.70
2018-08-22T14:54:52.184Z,29.78
2018-08-22T14:57:19.305Z,29.10
2018-08-22T14:59:46.319Z,29.13
2018-08-22T15:02:13.339Z,29.27
2018-08-22T15:04:40.611Z,29.05
2018-08-22T15:07:07.607Z,29.04
2018-08-22T15:09:34.827Z,28.90
2018-08-22T15:12:01.832Z,28.90
2018-08-22T15:14:29.129Z,29.04
2018-08-22T15:16:56.135Z,29.04
2018-08-22T15:19:23.276Z,28.96
2018-08-22T15:21:50.203Z,28.91
2018-08-22T15:24:17.224Z,28.83
2018-08-22T15:26:44.300Z,28.78
2018-08-22T15:29:11.425Z,28.67
2018-08-22T15:31:38.427Z,28.73
2018-08-22T15:34:05.522Z,28.70
2018-08-22T15:36:34.089Z,28.74
2018-08-22T15:39:01.135Z,28.76
2018-08-22T15:41:28.144Z,28.83
2018-08-22T15:43:55.156Z,28.79
2018-08-22T15:46:22.155Z,28.69
2018-08-22T15:48:49.516Z,28.67
2018-08-22T15:51:16.503Z,28.56
2018-08-22T15:53:44.135Z,28.57
2018-08-22T15:56:11.115Z,28.49
2018-08-22T15:58:38.107Z,28.52
2018-08-22T16:01:05.231Z,28.52
2018-08-22T16:03:38.963Z,28.47
2018-08-22T16:06:05.986Z,28.50
2018-08-22T16:08:32.994Z,28.37
2018-08-22T16:11:04.741Z,28.31
2018-08-22T16:13:32.075Z,28.33
2018-08-22T16:16:01.057Z,28.30
2018-08-22T16:18:28.088Z,28.26
2018-08-22T16:20:59.200Z,28.15
2018-08-22T16:23:28.669Z,28.13
2018-08-22T16:25:56.823Z,28.11
2018-08-22T16:28:24.369Z,28.09
2018-08-22T16:30:57.042Z,28.06
2018-08-22T16:33:19.720Z,28.08
2018-08-22T16:35:46.740Z,28.01
2018-08-22T16:38:14.317Z,27.85
2018-08-22T16:40:43.524Z,27.65
2018-08-22T16:43:10.535Z,27.68
2018-08-22T16:45:44.139Z,27.72
2018-08-22T16:48:12.052Z,27.68
2018-08-22T16:50:39.121Z,27.39
2018-08-22T16:53:06.120Z,27.29
2018-08-22T16:55:33.216Z,27.37
2018-08-22T16:58:00.241Z,27.37
2018-08-22T17:00:34.369Z,27.31
2018-08-22T17:03:02.623Z,27.27
2018-08-22T17:05:29.679Z,27.25
2018-08-22T17:07:57.427Z,27.19
2018-08-22T17:10:28.865Z,27.15
2018-08-22T17:12:56.046Z,27.16
2018-08-22T17:15:23.123Z,27.15
2018-08-22T17:17:50.027Z,27.02
2018-08-22T17:20:17.029Z,27.03
2018-08-22T17:22:44.007Z,26.92
2018-08-22T17:25:13.709Z,26.93
2018-08-22T17:27:40.971Z,26.81
2018-08-22T17:30:07.947Z,26.79
2018-08-22T17:32:34.925Z,26.78
2018-08-22T17:35:01.926Z,26.69
2018-08-22T17:37:29.001Z,26.59
2018-08-22T17:39:55.972Z,26.51
2018-08-22T17:42:22.964Z,26.49
2018-08-22T17:44:49.991Z,26.48
2018-08-22T17:47:17.001Z,26.43
2018-08-22T17:49:54.472Z,26.40
2018-08-22T17:52:21.539Z,26.30
2018-08-22T17:54:48.520Z,26.21
2018-08-22T17:57:24.616Z,26.19
2018-08-22T17:59:51.708Z,26.13
2018-08-22T18:02:18.811Z,26.01
2018-08-22T18:05:01.613Z,25.91
2018-08-22T18:07:28.700Z,25.84
2018-08-22T18:09:55.708Z,25.78
2018-08-22T18:12:23.749Z,25.73
2018-08-22T18:14:50.739Z,25.67
2018-08-22T18:17:18.440Z,25.61
2018-08-22T18:19:45.551Z,25.57
2018-08-22T18:22:12.579Z,25.52
2018-08-22T18:24:45.364Z,25.45
2018-08-22T18:27:12.419Z,25.37
2018-08-22T18:29:41.988Z,25.29
2018-08-22T18:32:09.344Z,25.25
2018-08-22T18:34:48.933Z,25.18
2018-08-22T18:37:16.253Z,25.13
2018-08-22T18:39:43.260Z,25.09
2018-08-22T18:42:10.332Z,25.01
2018-08-22T18:44:37.370Z,24.97
2018-08-22T18:47:04.373Z,24.87
2018-08-22T18:49:31.345Z,24.79
2018-08-22T18:51:58.426Z,24.66
2018-08-22T18:54:26.139Z,24.54
2018-08-22T18:56:53.191Z,24.61
2018-08-22T18:59:26.645Z,24.52
2018-08-22T19:01:54.292Z,24.44
2018-08-22T19:04:21.426Z,24.41
2018-08-22T19:06:48.450Z,24.39
2018-08-22T19:09:15.529Z,24.34
2018-08-22T19:11:42.508Z,24.28
2018-08-22T19:14:09.589Z,24.23
2018-08-22T19:16:36.556Z,24.16
2018-08-22T19:19:03.580Z,24.12
2018-08-22T19:21:30.565Z,24.07
2018-08-22T19:24:04.585Z,24.02
2018-08-22T19:26:32.073Z,23.95
2018-08-22T19:29:00.919Z,23.86
2018-08-22T19:31:28.389Z,23.83
2018-08-22T19:33:55.475Z,23.79
2018-08-22T19:36:22.462Z,23.72
2018-08-22T19:38:49.562Z,23.61
2018-08-22T19:41:32.128Z,23.57
2018-08-22T19:43:59.398Z,23.54
2018-08-22T19:46:26.766Z,23.49
2018-08-22T19:48:53.773Z,23.50
2018-08-22T19:51:21.040Z,23.48
2018-08-22T19:53:55.582Z,23.42
2018-08-22T19:56:22.874Z,23.38
2018-08-22T19:58:50.256Z,23.34
2018-08-22T20:01:19.415Z,23.32
2018-08-22T20:03:49.045Z,23.29
2018-08-22T20:06:16.029Z,23.22
2018-08-22T20:08:43.051Z,23.17
2018-08-22T20:11:10.193Z,23.14
2018-08-22T20:13:46.803Z,23.10
2018-08-22T20:16:14.174Z,23.03
2018-08-22T20:18:41.262Z,23.01
2018-08-22T20:21:10.946Z,22.95
2018-08-22T20:23:38.031Z,22.88
2018-08-22T20:26:05.139Z,22.81
2018-08-22T20:28:33.296Z,22.74
2018-08-22T20:31:05.923Z,22.67
2018-08-22T20:33:33.118Z,22.58
2018-08-22T20:36:00.111Z,22.48
2018-08-22T20:38:27.109Z,22.49
2018-08-22T20:40:58.799Z,22.44
2018-08-22T20:43:27.768Z,22.38
2018-08-22T20:45:54.836Z,22.33
2018-08-22T20:48:21.911Z,22.29
2018-08-22T20:50:48.903Z,22.27
2018-08-22T20:53:16.939Z,22.25
2018-08-22T20:55:43.963Z,22.21
2018-08-22T20:58:30.519Z,22.17
2018-08-22T21:00:58.783Z,22.12
2018-08-22T21:03:25.764Z,22.04
2018-08-22T21:05:52.739Z,22.00
2018-08-22T21:08:19.804Z,21.98
2018-08-22T21:10:46.723Z,21.95
2018-08-22T21:13:18.384Z,21.87
2018-08-22T21:15:45.440Z,21.84
2018-08-22T21:18:12.524Z,21.81
2018-08-22T21:20:39.576Z,21.77
2018-08-22T21:23:06.655Z,21.73
2018-08-22T21:25:33.767Z,21.69
2018-08-22T21:28:00.847Z,21.66
2018-08-22T21:30:27.975Z,21.59
2018-08-22T21:32:54.920Z,21.57
2018-08-22T21:35:23.709Z,21.58
2018-08-22T21:37:50.763Z,21.60
2018-08-22T21:40:17.829Z,21.54
2018-08-22T21:42:44.827Z,21.43
2018-08-22T21:45:11.848Z,21.32
2018-08-22T21:47:38.981Z,21.40
2018-08-22T21:50:06.076Z,21.24
2018-08-22T21:53:04.505Z,21.25
2018-08-22T21:55:37.743Z,21.09
2018-08-22T21:58:06.016Z,20.99
2018-08-22T22:00:33.063Z,20.88
2018-08-22T22:03:00.076Z,20.79
2018-08-22T22:05:39.529Z,20.27
2018-08-22T22:08:07.110Z,20.28
2018-08-22T22:10:34.195Z,20.45
2018-08-22T22:13:01.297Z,20.17
2018-08-22T22:15:34.054Z,20.21
2018-08-22T22:18:01.131Z,20.25
2018-08-22T22:20:28.339Z,20.39
2018-08-22T22:22:55.332Z,20.40
2018-08-22T22:25:22.366Z,20.29
2018-08-22T22:27:49.450Z,20.14
2018-08-22T22:30:16.456Z,20.01
2018-08-22T22:32:43.453Z,20.05
2018-08-22T22:35:10.444Z,20.10
2018-08-22T22:37:37.456Z,20.07
2018-08-22T22:40:04.836Z,20.05
2018-08-22T22:42:31.821Z,19.85
2018-08-22T22:44:59.502Z,19.84
2018-08-22T22:47:29.704Z,19.78
2018-08-22T22:49:57.363Z,19.76
2018-08-22T22:52:30.591Z,19.89
2018-08-22T22:58:19.880Z,19.80
2018-08-22T23:00:47.037Z,19.77
2018-08-22T23:03:14.028Z,19.81
2018-08-22T23:05:41.154Z,19.75
2018-08-22T23:08:08.158Z,19.65
2018-08-22T23:10:35.157Z,19.53
2018-08-22T23:13:02.287Z,19.53
2018-08-22T23:15:30.217Z,19.41
2018-08-22T23:17:59.608Z,19.34
2018-08-22T23:20:38.821Z,19.28
2018-08-22T23:23:21.836Z,19.18
2018-08-22T23:25:49.214Z,19.20
2018-08-22T23:28:16.280Z,18.93
2018-08-22T23:30:43.272Z,18.67
2018-08-22T23:33:10.453Z,18.67
2018-08-22T23:35:37.472Z,18.76
2018-08-22T23:38:08.494Z,18.74
2018-08-22T23:40:35.805Z,18.66
2018-08-22T23:43:03.032Z,18.67
2018-08-22T23:45:30.109Z,18.70
2018-08-22T23:47:57.129Z,18.69
2018-08-22T23:50:31.502Z,18.52
2018-08-22T23:52:58.489Z,18.47
2018-08-22T23:55:25.500Z,18.55
2018-08-22T23:57:54.948Z,18.72
